createdAt,value
2018-12-14T00:00:41.638Z,1.33
2018-12-14T00:03:10.962Z,1.34
2018-12-14T00:05:40.197Z,1.38
2018-12-14T00:08:09.426Z,1.26
2018-12-14T00:10:38.801Z,1.29
2018-12-14T00:13:07.962Z,1.38
2018-12-14T00:15:37.209Z,1.42
2018-12-14T00:18:33.256Z,1.31
2018-12-14T00:21:02.557Z,1.36
2018-12-14T00:23:31.776Z,1.41
2018-12-14T00:26:00.992Z,1.42
2018-12-14T00:28:30.187Z,1.43
2018-12-14T00:30:59.485Z,1.72
2018-12-14T00:33:28.697Z,1.79
2018-12-14T00:35:57.985Z,1.70
2018-12-14T00:38:27.183Z,1.69
2018-12-14T00:40:56.600Z,1.72
2018-12-14T00:43:25.803Z,1.62
2018-12-14T00:45:54.997Z,1.68
2018-12-14T00:48:24.227Z,1.69
2018-12-14T00:50:53.420Z,1.62
2018-12-14T00:53:22.640Z,1.70
2018-12-14T00:55:51.859Z,1.52
2018-12-14T00:58:21.106Z,1.47
2018-12-14T01:00:50.343Z,1.50
2018-12-14T01:03:19.608Z,1.60
2018-12-14T01:05:48.853Z,1.67
2018-12-14T01:08:18.044Z,1.66
2018-12-14T01:10:47.273Z,1.65
2018-12-14T01:13:16.443Z,1.54
2018-12-14T01:15:45.726Z,1.49
2018-12-14T01:18:15.347Z,1.56
2018-12-14T01:20:44.560Z,1.47
2018-12-14T01:23:13.814Z,1.56
2018-12-14T01:25:43.199Z,1.63
2018-12-14T01:28:12.503Z,1.51
2018-12-14T01:30:41.664Z,1.41
2018-12-14T01:33:10.897Z,1.58
2018-12-14T01:35:40.142Z,1.26
2018-12-14T01:38:09.353Z,1.23
2018-12-14T01:40:38.592Z,1.22
2018-12-14T01:43:07.862Z,1.31
2018-12-14T01:45:37.093Z,1.42
2018-12-14T01:48:06.346Z,1.32
2018-12-14T01:50:35.654Z,1.30
2018-12-14T01:53:04.887Z,1.47
2018-12-14T01:55:34.111Z,1.51
2018-12-14T01:58:03.347Z,1.53
2018-12-14T02:00:32.611Z,1.48
2018-12-14T02:03:01.849Z,1.30
2018-12-14T02:05:31.042Z,1.42
2018-12-14T02:08:00.329Z,1.49
2018-12-14T02:10:29.498Z,1.50
2018-12-14T02:12:58.708Z,1.28
2018-12-14T02:15:27.935Z,1.36
2018-12-14T02:17:57.163Z,1.35
2018-12-14T02:20:26.476Z,1.29
2018-12-14T02:22:55.642Z,1.36
2018-12-14T02:25:24.847Z,1.45
2018-12-14T02:27:54.037Z,1.30
2018-12-14T02:30:46.376Z,1.34
2018-12-14T02:33:16.335Z,1.29
2018-12-14T02:35:45.562Z,1.36
2018-12-14T02:38:14.892Z,1.47
2018-12-14T02:40:44.165Z,1.41
2018-12-14T02:43:13.904Z,1.30
2018-12-14T02:45:43.190Z,1.29
2018-12-14T02:48:12.737Z,1.22
2018-12-14T02:50:41.962Z,1.11
2018-12-14T02:53:11.210Z,1.07
2018-12-14T02:55:40.473Z,1.05
2018-12-14T02:58:10.525Z,1.25
2018-12-14T03:00:39.850Z,1.24
2018-12-14T03:03:09.240Z,1.32
2018-12-14T03:05:38.440Z,1.32
2018-12-14T03:08:07.733Z,1.42
2018-12-14T03:10:36.924Z,1.36
2018-12-14T03:13:06.194Z,1.56
2018-12-14T03:15:35.471Z,1.47
2018-12-14T03:18:04.704Z,1.57
2018-12-14T03:20:33.961Z,1.48
2018-12-14T03:23:03.215Z,1.45
2018-12-14T03:25:32.506Z,1.48
2018-12-14T03:28:01.695Z,1.54
2018-12-14T03:30:30.886Z,1.53
2018-12-14T03:33:00.090Z,1.49
2018-12-14T03:35:29.308Z,1.51
2018-12-14T03:37:58.478Z,1.49
2018-12-14T03:40:27.745Z,1.39
2018-12-14T03:42:58.144Z,1.33
2018-12-14T03:45:27.455Z,1.43
2018-12-14T03:47:56.665Z,1.20
2018-12-14T03:50:26.237Z,1.24
2018-12-14T03:52:55.438Z,1.38
2018-12-14T03:55:24.697Z,1.34
2018-12-14T03:57:53.900Z,1.26
2018-12-14T04:00:23.263Z,1.29
2018-12-14T04:02:52.596Z,1.30
2018-12-14T04:05:21.853Z,1.31
2018-12-14T04:07:51.288Z,1.32
2018-12-14T04:10:20.485Z,1.22
2018-12-14T04:12:49.768Z,1.22
2018-12-14T04:15:19.992Z,1.39
2018-12-14T04:17:49.192Z,1.27
2018-12-14T04:20:18.921Z,1.19
2018-12-14T04:22:48.442Z,1.09
2018-12-14T04:25:18.450Z,1.07
2018-12-14T04:27:47.677Z,1.07
2018-12-14T04:30:17.871Z,1.09
2018-12-14T04:32:50.285Z,1.12
2018-12-14T04:35:19.476Z,1.10
2018-12-14T04:37:49.016Z,1.11
2018-12-14T04:40:19.419Z,1.21
2018-12-14T04:42:49.128Z,1.18
2018-12-14T04:45:19.710Z,1.19
2018-12-14T04:47:48.880Z,1.19
2018-12-14T04:50:18.310Z,1.15
2018-12-14T04:52:47.517Z,1.20
2018-12-14T04:55:17.839Z,1.19
2018-12-14T04:57:47.056Z,1.05
2018-12-14T05:00:17.576Z,1.05
2018-12-14T05:02:46.861Z,1.04
2018-12-14T05:05:17.038Z,1.15
2018-12-14T05:07:46.249Z,1.25
2018-12-14T05:10:16.225Z,1.12
2018-12-14T05:12:45.515Z,1.07
2018-12-14T05:15:15.343Z,1.04
2018-12-14T05:17:44.597Z,1.11
2018-12-14T05:20:14.452Z,1.11
2018-12-14T05:22:43.710Z,1.13
2018-12-14T05:25:12.960Z,1.22
2018-12-14T05:27:42.293Z,1.11
2018-12-14T05:30:11.675Z,1.12
2018-12-14T05:32:40.956Z,1.11
2018-12-14T05:35:10.207Z,1.17
2018-12-14T05:37:39.412Z,1.21
2018-12-14T05:40:08.679Z,1.11
2018-12-14T05:42:37.939Z,1.17
2018-12-14T05:45:07.643Z,1.04
2018-12-14T05:47:36.848Z,1.06
2018-12-14T05:50:06.821Z,1.13
2018-12-14T05:52:35.987Z,1.27
2018-12-14T05:55:05.801Z,1.10
2018-12-14T05:57:35.344Z,1.09
2018-12-14T06:00:05.605Z,1.02
2018-12-14T06:02:34.819Z,1.02
2018-12-14T06:05:04.099Z,1.04
2018-12-14T06:07:33.319Z,1.06
2018-12-14T06:10:02.595Z,1.12
2018-12-14T06:12:31.805Z,1.02
2018-12-14T06:15:01.049Z,1.04
2018-12-14T06:17:30.237Z,1.13
2018-12-14T06:19:59.462Z,1.03
2018-12-14T06:22:28.735Z,1.11
2018-12-14T06:24:58.090Z,1.14
2018-12-14T06:27:27.290Z,1.14
2018-12-14T06:29:56.675Z,1.06
2018-12-14T06:32:25.939Z,1.24
2018-12-14T06:34:55.187Z,1.18
2018-12-14T06:37:24.428Z,1.24
2018-12-14T06:39:53.668Z,1.08
2018-12-14T06:42:22.877Z,0.97
2018-12-14T06:44:52.393Z,1.00
2018-12-14T06:47:21.628Z,1.03
2018-12-14T06:49:50.966Z,0.97
2018-12-14T06:52:20.224Z,0.92
2018-12-14T06:54:49.548Z,0.89
2018-12-14T06:57:18.846Z,0.89
2018-12-14T06:59:48.089Z,0.92
2018-12-14T07:02:17.438Z,0.93
2018-12-14T07:04:46.645Z,0.86
2018-12-14T07:07:17.172Z,0.88
2018-12-14T07:09:46.464Z,0.91
2018-12-14T07:12:15.941Z,0.97
2018-12-14T07:14:45.236Z,0.95
2018-12-14T07:17:14.466Z,0.98
2018-12-14T07:19:43.640Z,1.00
2018-12-14T07:22:12.829Z,1.03
2018-12-14T07:24:42.123Z,1.09
2018-12-14T07:27:11.386Z,1.01
2018-12-14T07:29:40.630Z,1.10
2018-12-14T07:32:10.226Z,1.04
2018-12-14T07:34:39.158Z,0.90
2018-12-14T07:37:08.948Z,0.94
2018-12-14T07:39:38.169Z,0.91
2018-12-14T07:42:07.469Z,0.79
2018-12-14T07:44:36.867Z,0.78
2018-12-14T07:47:11.709Z,0.79
2018-12-14T07:49:36.526Z,0.86
2018-12-14T07:52:08.097Z,0.87
2018-12-14T07:54:37.338Z,0.84
2018-12-14T07:57:06.627Z,0.88
2018-12-14T07:59:35.801Z,0.98
2018-12-14T08:02:05.233Z,1.01
2018-12-14T08:04:34.487Z,0.95
2018-12-14T08:07:03.728Z,0.97
2018-12-14T08:09:32.974Z,0.93
2018-12-14T08:12:02.217Z,1.03
2018-12-14T08:14:31.416Z,1.00
2018-12-14T08:17:00.656Z,0.98
2018-12-14T08:19:29.859Z,1.00
2018-12-14T08:21:59.142Z,0.99
2018-12-14T08:24:28.329Z,1.09
2018-12-14T08:26:57.678Z,0.98
2018-12-14T08:29:26.859Z,0.90
2018-12-14T08:31:56.097Z,0.94
2018-12-14T08:34:25.320Z,0.97
2018-12-14T08:36:54.538Z,0.88
2018-12-14T08:39:23.714Z,0.88
2018-12-14T08:41:52.918Z,1.02
2018-12-14T08:44:22.151Z,1.03
2018-12-14T08:46:51.365Z,1.03
2018-12-14T08:49:20.508Z,1.04
2018-12-14T08:51:49.761Z,1.07
2018-12-14T08:54:18.937Z,1.13
2018-12-14T08:56:48.174Z,1.15
2018-12-14T08:59:17.377Z,1.00
2018-12-14T09:01:46.666Z,1.03
2018-12-14T09:04:15.998Z,1.16
2018-12-14T09:06:45.201Z,1.23
2018-12-14T09:09:14.537Z,1.05
2018-12-14T09:11:43.759Z,1.04
2018-12-14T09:14:12.960Z,0.97
2018-12-14T09:16:42.200Z,1.06
2018-12-14T09:19:11.485Z,1.00
2018-12-14T09:21:40.733Z,1.06
2018-12-14T09:24:10.314Z,1.07
2018-12-14T09:26:39.534Z,1.09
2018-12-14T09:29:09.204Z,1.16
2018-12-14T09:31:38.520Z,1.14
2018-12-14T09:34:08.198Z,1.07
2018-12-14T09:36:37.421Z,1.07
2018-12-14T09:39:07.455Z,1.15
2018-12-14T09:41:36.659Z,0.98
2018-12-14T09:44:05.985Z,1.00
2018-12-14T09:46:37.247Z,1.06
2018-12-14T09:49:04.464Z,1.15
2018-12-14T09:51:33.664Z,1.02
2018-12-14T09:54:02.912Z,1.03
2018-12-14T09:56:32.553Z,0.97
2018-12-14T09:59:01.775Z,1.00
2018-12-14T10:01:31.088Z,1.08
2018-12-14T10:04:00.398Z,1.21
2018-12-14T10:06:29.677Z,1.26
2018-12-14T10:08:58.925Z,1.20
2018-12-14T10:11:28.186Z,1.10
2018-12-14T10:14:00.837Z,1.07
2018-12-14T10:16:26.869Z,1.11
2018-12-14T10:18:56.174Z,1.07
2018-12-14T10:21:25.405Z,1.02
2018-12-14T10:23:54.644Z,1.00
2018-12-14T10:26:23.842Z,1.00
2018-12-14T10:28:53.098Z,1.18
2018-12-14T10:31:22.327Z,1.11
2018-12-14T10:33:51.628Z,1.08
2018-12-14T10:36:20.838Z,1.11
2018-12-14T10:38:50.092Z,1.13
2018-12-14T10:41:19.322Z,1.18
2018-12-14T10:43:48.581Z,1.18
2018-12-14T10:46:18.069Z,1.16
2018-12-14T10:48:47.393Z,1.13
2018-12-14T10:51:16.725Z,0.98
2018-12-14T10:53:46.026Z,1.10
2018-12-14T10:56:15.197Z,1.20
2018-12-14T10:58:44.457Z,1.10
2018-12-14T11:01:20.185Z,1.01
2018-12-14T11:03:50.807Z,1.10
2018-12-14T11:06:21.174Z,1.06
2018-12-14T11:08:51.613Z,1.02
2018-12-14T11:11:21.689Z,1.02
2018-12-14T11:13:52.413Z,0.99
2018-12-14T11:16:21.696Z,0.93
2018-12-14T11:18:50.965Z,1.00
2018-12-14T11:21:20.213Z,1.02
2018-12-14T11:23:49.647Z,1.03
2018-12-14T11:26:18.867Z,0.93
2018-12-14T11:28:48.058Z,1.08
2018-12-14T11:31:17.409Z,1.24
2018-12-14T11:33:46.801Z,1.14
2018-12-14T11:36:16.115Z,1.32
2018-12-14T11:38:45.347Z,1.31
2018-12-14T11:41:18.434Z,1.27
2018-12-14T11:43:43.924Z,1.37
2018-12-14T11:46:13.228Z,1.12
2018-12-14T11:48:42.528Z,1.04
2018-12-14T11:51:14.478Z,0.96
2018-12-14T11:53:43.685Z,1.06
2018-12-14T11:56:13.064Z,1.01
2018-12-14T11:58:42.293Z,1.09
2018-12-14T12:01:12.046Z,1.01
2018-12-14T12:03:42.993Z,1.12
2018-12-14T12:06:10.598Z,1.08
2018-12-14T12:08:39.811Z,1.06
2018-12-14T12:11:09.524Z,1.00
2018-12-14T12:13:38.691Z,1.03
2018-12-14T12:16:08.345Z,1.04
2018-12-14T12:18:37.640Z,1.16
2018-12-14T12:21:06.826Z,1.10
2018-12-14T12:23:36.128Z,1.17
2018-12-14T12:26:05.386Z,1.05
2018-12-14T12:28:34.806Z,1.05
2018-12-14T12:31:04.041Z,1.04
2018-12-14T12:33:33.267Z,1.10
2018-12-14T12:36:02.534Z,1.10
2018-12-14T12:38:37.946Z,1.12
2018-12-14T12:41:00.968Z,1.05
2018-12-14T12:43:30.199Z,1.19
2018-12-14T12:45:59.705Z,1.15
2018-12-14T12:48:28.924Z,1.16
2018-12-14T12:51:03.044Z,1.10
2018-12-14T12:53:27.440Z,1.14
2018-12-14T12:55:56.707Z,1.15
2018-12-14T12:58:25.992Z,1.30
2018-12-14T13:00:55.898Z,1.20
2018-12-14T13:03:25.142Z,1.13
2018-12-14T13:05:54.374Z,1.08
2018-12-14T13:08:23.615Z,1.13
2018-12-14T13:10:53.071Z,1.21
2018-12-14T13:13:22.324Z,1.09
2018-12-14T13:15:51.516Z,1.20
2018-12-14T13:18:20.771Z,1.26
2018-12-14T13:20:50.049Z,1.31
2018-12-14T13:23:19.424Z,1.24
2018-12-14T13:25:48.649Z,1.45
2018-12-14T13:28:17.930Z,1.44
2018-12-14T13:30:47.184Z,1.22
2018-12-14T13:33:16.489Z,1.09
2018-12-14T13:35:45.736Z,1.18
2018-12-14T13:38:14.996Z,1.25
2018-12-14T13:40:44.275Z,1.23
2018-12-14T13:43:13.809Z,1.21
2018-12-14T13:45:43.063Z,1.39
2018-12-14T13:48:12.352Z,1.24
2018-12-14T13:50:41.619Z,1.20
2018-12-14T13:53:11.415Z,1.30
2018-12-14T13:55:40.712Z,1.50
2018-12-14T13:58:10.563Z,1.59
2018-12-14T14:00:39.844Z,1.56
2018-12-14T14:03:10.346Z,1.61
2018-12-14T14:05:38.748Z,1.31
2018-12-14T14:08:09.267Z,1.27
2018-12-14T14:10:38.457Z,1.07
2018-12-14T14:13:08.345Z,1.14
2018-12-14T14:15:37.559Z,1.02
2018-12-14T14:18:07.015Z,1.05
2018-12-14T14:20:36.220Z,1.13
2018-12-14T14:23:05.450Z,1.08
2018-12-14T14:25:34.746Z,1.14
2018-12-14T14:28:03.973Z,1.11
2018-12-14T14:30:33.354Z,1.03
2018-12-14T14:33:02.577Z,1.08
2018-12-14T14:35:31.857Z,1.04
2018-12-14T14:38:01.046Z,1.08
2018-12-14T14:40:30.381Z,1.17
2018-12-14T14:42:59.574Z,1.13
2018-12-14T14:45:28.886Z,1.06
2018-12-14T14:47:58.151Z,1.18
2018-12-14T14:50:27.376Z,1.19
2018-12-14T14:52:56.614Z,1.13
2018-12-14T14:55:25.902Z,1.12
2018-12-14T14:57:55.172Z,1.05
2018-12-14T15:00:24.392Z,1.03
2018-12-14T15:02:53.642Z,0.89
2018-12-14T15:05:22.872Z,0.92
2018-12-14T15:07:52.071Z,0.98
2018-12-14T15:10:21.329Z,0.97
2018-12-14T15:12:50.535Z,0.97
2018-12-14T15:15:19.741Z,0.89
2018-12-14T15:17:48.949Z,0.99
2018-12-14T15:20:18.199Z,1.06
2018-12-14T15:22:47.449Z,0.90
2018-12-14T15:25:17.022Z,1.05
2018-12-14T15:27:46.217Z,1.05
2018-12-14T15:30:15.589Z,1.20
2018-12-14T15:32:44.773Z,1.24
2018-12-14T15:35:15.147Z,0.92
2018-12-14T15:37:44.289Z,0.84
2018-12-14T15:40:13.972Z,0.97
2018-12-14T15:42:43.185Z,1.15
2018-12-14T15:45:13.574Z,1.09
2018-12-14T15:47:42.853Z,1.03
2018-12-14T15:50:12.137Z,0.99
2018-12-14T15:52:41.449Z,0.95
2018-12-14T15:55:10.654Z,0.94
2018-12-14T15:57:39.955Z,1.12
2018-12-14T16:00:09.305Z,1.19
2018-12-14T16:02:38.611Z,1.15
2018-12-14T16:05:07.887Z,1.03
2018-12-14T16:07:37.113Z,1.04
2018-12-14T16:10:06.637Z,1.08
2018-12-14T16:12:35.879Z,1.05
2018-12-14T16:15:06.331Z,0.92
2018-12-14T16:17:35.988Z,1.00
2018-12-14T16:20:06.158Z,1.06
2018-12-14T16:22:35.416Z,0.90
2018-12-14T16:25:04.848Z,0.90
2018-12-14T16:27:34.099Z,0.88
2018-12-14T16:30:03.407Z,1.05
2018-12-14T16:32:32.706Z,1.21
2018-12-14T16:35:01.972Z,1.02
2018-12-14T16:37:31.331Z,0.98
2018-12-14T16:40:00.545Z,1.05
2018-12-14T16:42:30.758Z,1.07
2018-12-14T16:45:00.094Z,0.97
2018-12-14T16:47:29.394Z,0.84
2018-12-14T16:49:58.568Z,0.99
2018-12-14T16:52:27.829Z,0.71
2018-12-14T16:54:57.100Z,0.75
2018-12-14T16:57:26.324Z,0.93
2018-12-14T16:59:55.499Z,0.74
2018-12-14T17:02:24.803Z,0.64
2018-12-14T17:04:54.051Z,0.70
2018-12-14T17:07:23.292Z,0.64
2018-12-14T17:09:52.476Z,0.73
2018-12-14T17:12:21.778Z,0.83
2018-12-14T17:14:51.061Z,0.80
2018-12-14T17:17:20.305Z,0.74
2018-12-14T17:19:49.528Z,0.78
2018-12-14T17:22:18.894Z,0.70
2018-12-14T17:24:48.198Z,0.94
2018-12-14T17:27:18.112Z,0.93
2018-12-14T17:29:47.488Z,0.82
2018-12-14T17:32:16.833Z,0.80
2018-12-14T17:34:46.268Z,0.72
2018-12-14T17:37:15.972Z,0.74
2018-12-14T17:39:45.261Z,0.63
2018-12-14T17:42:14.829Z,0.75
2018-12-14T17:44:44.118Z,0.71
2018-12-14T17:47:13.684Z,0.84
2018-12-14T17:49:43.333Z,0.83
2018-12-14T17:52:12.675Z,0.75
2018-12-14T17:54:41.986Z,0.73
2018-12-14T17:57:11.342Z,0.71
2018-12-14T17:59:42.255Z,0.82
2018-12-14T18:02:11.512Z,0.76
2018-12-14T18:04:40.824Z,0.70
2018-12-14T18:07:10.114Z,0.71
2018-12-14T18:09:39.344Z,0.67
2018-12-14T18:12:08.682Z,0.68
2018-12-14T18:14:37.947Z,0.66
2018-12-14T18:17:07.244Z,0.70
2018-12-14T18:19:37.622Z,0.66
2018-12-14T18:22:06.821Z,0.68
2018-12-14T18:24:36.076Z,0.77
2018-12-14T18:27:05.368Z,0.74
2018-12-14T18:29:34.644Z,0.81
2018-12-14T18:32:03.894Z,0.82
2018-12-14T18:34:33.128Z,0.74
2018-12-14T18:37:02.366Z,0.75
2018-12-14T18:39:31.969Z,0.73
2018-12-14T18:42:01.280Z,0.88
2018-12-14T18:44:30.533Z,0.85
2018-12-14T18:46:59.741Z,0.81
2018-12-14T18:49:29.034Z,0.82
2018-12-14T18:51:58.288Z,0.92
2018-12-14T18:54:27.613Z,0.93
2018-12-14T18:56:56.899Z,1.00
2018-12-14T18:59:26.128Z,1.03
2018-12-14T19:01:55.482Z,0.95
2018-12-14T19:04:24.721Z,1.15
2018-12-14T19:06:54.025Z,1.21
2018-12-14T19:09:23.327Z,1.23
2018-12-14T19:11:54.059Z,1.22
2018-12-14T19:14:22.387Z,1.41
2018-12-14T19:16:51.709Z,1.33
2018-12-14T19:19:20.909Z,1.37
2018-12-14T19:21:50.193Z,1.35
2018-12-14T19:24:19.414Z,1.43
2018-12-14T19:26:48.612Z,1.31
2018-12-14T19:29:17.832Z,1.45
2018-12-14T19:31:47.041Z,1.43
2018-12-14T19:34:16.884Z,1.52
2018-12-14T19:36:46.359Z,1.39
2018-12-14T19:39:17.057Z,1.62
2018-12-14T19:41:46.341Z,1.47
2018-12-14T19:44:15.725Z,1.32
2018-12-14T19:46:44.939Z,1.38
2018-12-14T19:49:14.351Z,1.45
2018-12-14T19:51:43.582Z,1.29
2018-12-14T19:54:13.382Z,1.45
2018-12-14T19:56:42.671Z,1.47
2018-12-14T19:59:12.202Z,1.59
2018-12-14T20:01:41.444Z,1.64
2018-12-14T20:04:10.736Z,1.58
2018-12-14T20:06:40.306Z,1.44
2018-12-14T20:09:09.510Z,1.60
2018-12-14T20:11:38.869Z,1.76
2018-12-14T20:14:08.960Z,1.41
2018-12-14T20:16:37.410Z,1.40
2018-12-14T20:19:06.642Z,1.35
2018-12-14T20:21:35.845Z,1.36
2018-12-14T20:24:05.887Z,1.47
2018-12-14T20:26:35.085Z,1.57
2018-12-14T20:29:04.336Z,1.63
2018-12-14T20:31:33.538Z,1.71
2018-12-14T20:34:02.895Z,1.65
2018-12-14T20:36:32.140Z,1.76
2018-12-14T20:39:01.550Z,1.48
2018-12-14T20:41:30.841Z,1.24
2018-12-14T20:44:00.154Z,1.21
2018-12-14T20:46:29.665Z,1.44
2018-12-14T20:48:58.866Z,1.44
2018-12-14T20:51:28.153Z,1.51
2018-12-14T20:53:57.408Z,1.39
2018-12-14T20:56:26.655Z,1.53
2018-12-14T20:58:56.230Z,1.46
2018-12-14T21:01:26.906Z,1.48
2018-12-14T21:03:56.165Z,1.50
2018-12-14T21:06:25.448Z,1.50
2018-12-14T21:08:55.101Z,1.47
2018-12-14T21:11:24.554Z,1.27
2018-12-14T21:13:53.991Z,1.12
2018-12-14T21:16:26.081Z,1.06
2018-12-14T21:18:52.582Z,1.09
2018-12-14T21:21:21.914Z,1.21
2018-12-14T21:23:51.148Z,1.34
2018-12-14T21:26:20.507Z,1.50
2018-12-14T21:28:49.824Z,1.37
2018-12-14T21:31:19.278Z,1.37
2018-12-14T21:33:52.122Z,1.23
2018-12-14T21:36:21.391Z,1.18
2018-12-14T21:38:50.854Z,1.12
2018-12-14T21:41:20.272Z,1.10
2018-12-14T21:43:49.498Z,1.30
2018-12-14T21:46:18.770Z,1.34
2018-12-14T21:48:47.996Z,1.44
2018-12-14T21:51:17.255Z,1.42
2018-12-14T21:53:46.610Z,1.36
2018-12-14T21:56:15.855Z,1.27
2018-12-14T21:58:47.220Z,1.37
2018-12-14T22:01:16.522Z,1.34
2018-12-14T22:03:45.900Z,1.24
2018-12-14T22:06:15.710Z,1.21
2018-12-14T22:08:44.887Z,1.27
2018-12-14T22:11:14.366Z,1.42
2018-12-14T22:13:43.656Z,1.26
2018-12-14T22:16:13.319Z,1.23
2018-12-14T22:18:42.794Z,1.19
2018-12-14T22:21:12.145Z,1.20
2018-12-14T22:23:41.474Z,1.23
2018-12-14T22:26:11.023Z,1.21
2018-12-14T22:28:43.091Z,1.36
2018-12-14T22:31:12.391Z,1.39
2018-12-14T22:33:41.600Z,1.40
2018-12-14T22:36:10.864Z,1.14
2018-12-14T22:38:40.096Z,1.07
2018-12-14T22:41:09.361Z,0.98
2018-12-14T22:43:38.642Z,0.98
2018-12-14T22:46:07.848Z,1.08
2018-12-14T22:48:37.130Z,1.20
2018-12-14T22:51:07.526Z,1.07
2018-12-14T22:53:36.713Z,1.21
2018-12-14T22:56:06.094Z,1.08
2018-12-14T22:58:35.546Z,1.13
2018-12-14T23:01:04.794Z,1.04
2018-12-14T23:03:34.113Z,1.16
2018-12-14T23:06:03.351Z,1.33
2018-12-14T23:08:32.784Z,1.24
2018-12-14T23:11:03.153Z,1.22
2018-12-14T23:13:32.380Z,1.37
2018-12-14T23:16:02.175Z,1.10
2018-12-14T23:18:31.525Z,1.15
2018-12-14T23:21:01.677Z,1.03
2018-12-14T23:23:30.858Z,1.11
2018-12-14T23:26:00.206Z,1.26
2018-12-14T23:28:29.481Z,1.19
2018-12-14T23:30:58.658Z,1.22
2018-12-14T23:33:27.929Z,1.34
2018-12-14T23:35:57.140Z,1.28
2018-12-14T23:38:26.409Z,1.39
2018-12-14T23:40:55.656Z,1.23
2018-12-14T23:43:24.974Z,1.04
2018-12-14T23:45:54.225Z,1.11
2018-12-14T23:48:23.532Z,1.06
2018-12-14T23:50:52.753Z,1.20
2018-12-14T23:53:21.976Z,1.09
2018-12-14T23:55:51.213Z,1.06
2018-12-14T23:58:20.478Z,1.06
